sensor_id;sensor_type;location;lat;lon;timestamp;P1;durP1;ratioP1;P2;durP2;ratioP2
49758;SDS011;70329;45.524;10.194;2024-03-02T00:00:59;8.93;;;2.10;;
49758;SDS011;70329;45.524;10.194;2024-03-02T00:03:27;5.95;;;1.90;;
49758;SDS011;70329;45.524;10.194;2024-03-02T00:05:53;6.50;;;1.95;;
49758;SDS011;70329;45.524;10.194;2024-03-02T00:08:22;8.30;;;1.92;;
49758;SDS011;70329;45.524;10.194;2024-03-02T00:10:50;9.15;;;1.63;;
49758;SDS011;70329;45.524;10.194;2024-03-02T00:13:20;10.45;;;1.55;;
49758;SDS011;70329;45.524;10.194;2024-03-02T00:15:51;8.48;;;2.20;;
49758;SDS011;70329;45.524;10.194;2024-03-02T00:18:19;8.25;;;2.25;;
49758;SDS011;70329;45.524;10.194;2024-03-02T00:20:48;8.45;;;2.00;;
49758;SDS011;70329;45.524;10.194;2024-03-02T00:23:15;8.00;;;1.85;;
49758;SDS011;70329;45.524;10.194;2024-03-02T00:25:45;5.70;;;1.77;;
49758;SDS011;70329;45.524;10.194;2024-03-02T00:28:16;4.70;;;1.65;;
49758;SDS011;70329;45.524;10.194;2024-03-02T00:33:30;5.93;;;1.67;;
49758;SDS011;70329;45.524;10.194;2024-03-02T00:35:59;6.43;;;1.70;;
49758;SDS011;70329;45.524;10.194;2024-03-02T00:38:29;5.90;;;1.73;;
49758;SDS011;70329;45.524;10.194;2024-03-02T00:40:58;7.68;;;1.90;;
49758;SDS011;70329;45.524;10.194;2024-03-02T00:43:45;6.03;;;1.48;;
49758;SDS011;70329;45.524;10.194;2024-03-02T00:46:15;4.20;;;1.45;;
49758;SDS011;70329;45.524;10.194;2024-03-02T00:48:54;7.15;;;2.70;;
49758;SDS011;70329;45.524;10.194;2024-03-02T00:51:24;11.75;;;3.63;;
49758;SDS011;70329;45.524;10.194;2024-03-02T00:53:52;8.18;;;3.03;;
49758;SDS011;70329;45.524;10.194;2024-03-02T00:56:22;8.18;;;2.60;;
49758;SDS011;70329;45.524;10.194;2024-03-02T00:58:50;8.35;;;2.78;;
49758;SDS011;70329;45.524;10.194;2024-03-02T01:01:18;7.28;;;2.72;;
49758;SDS011;70329;45.524;10.194;2024-03-02T01:03:46;6.47;;;2.90;;
49758;SDS011;70329;45.524;10.194;2024-03-02T01:06:14;6.03;;;2.78;;
49758;SDS011;70329;45.524;10.194;2024-03-02T01:08:43;10.52;;;2.88;;
49758;SDS011;70329;45.524;10.194;2024-03-02T01:11:10;11.73;;;3.50;;
49758;SDS011;70329;45.524;10.194;2024-03-02T01:13:37;7.13;;;2.33;;
49758;SDS011;70329;45.524;10.194;2024-03-02T01:16:03;4.25;;;1.80;;
49758;SDS011;70329;45.524;10.194;2024-03-02T01:18:31;5.22;;;2.40;;
49758;SDS011;70329;45.524;10.194;2024-03-02T01:20:59;5.78;;;2.13;;
49758;SDS011;70329;45.524;10.194;2024-03-02T01:23:26;8.18;;;2.40;;
49758;SDS011;70329;45.524;10.194;2024-03-02T01:25:55;10.45;;;4.00;;
49758;SDS011;70329;45.524;10.194;2024-03-02T01:28:21;9.68;;;4.45;;
49758;SDS011;70329;45.524;10.194;2024-03-02T01:30:48;10.95;;;6.10;;
49758;SDS011;70329;45.524;10.194;2024-03-02T01:33:16;12.63;;;6.22;;
49758;SDS011;70329;45.524;10.194;2024-03-02T01:35:45;14.85;;;6.20;;
49758;SDS011;70329;45.524;10.194;2024-03-02T01:38:13;18.00;;;7.20;;
49758;SDS011;70329;45.524;10.194;2024-03-02T01:40:41;19.33;;;7.65;;
49758;SDS011;70329;45.524;10.194;2024-03-02T01:43:10;12.98;;;6.30;;
49758;SDS011;70329;45.524;10.194;2024-03-02T01:45:37;12.93;;;6.10;;
49758;SDS011;70329;45.524;10.194;2024-03-02T01:48:06;9.95;;;5.13;;
49758;SDS011;70329;45.524;10.194;2024-03-02T01:50:34;14.00;;;5.97;;
49758;SDS011;70329;45.524;10.194;2024-03-02T01:53:01;13.65;;;6.18;;
49758;SDS011;70329;45.524;10.194;2024-03-02T01:55:28;13.75;;;5.65;;
49758;SDS011;70329;45.524;10.194;2024-03-02T01:57:55;14.73;;;6.32;;
49758;SDS011;70329;45.524;10.194;2024-03-02T02:00:24;15.45;;;6.85;;
49758;SDS011;70329;45.524;10.194;2024-03-02T02:02:52;16.02;;;6.82;;
49758;SDS011;70329;45.524;10.194;2024-03-02T02:05:21;12.80;;;5.97;;
49758;SDS011;70329;45.524;10.194;2024-03-02T02:07:47;14.07;;;6.80;;
49758;SDS011;70329;45.524;10.194;2024-03-02T02:10:14;10.38;;;5.57;;
49758;SDS011;70329;45.524;10.194;2024-03-02T02:12:41;15.02;;;6.10;;
49758;SDS011;70329;45.524;10.194;2024-03-02T02:15:25;12.13;;;6.30;;
49758;SDS011;70329;45.524;10.194;2024-03-02T02:17:52;11.82;;;5.78;;
49758;SDS011;70329;45.524;10.194;2024-03-02T02:20:20;11.60;;;6.15;;
49758;SDS011;70329;45.524;10.194;2024-03-02T02:22:58;11.98;;;6.97;;
49758;SDS011;70329;45.524;10.194;2024-03-02T02:25:27;11.75;;;5.75;;
49758;SDS011;70329;45.524;10.194;2024-03-02T02:27:54;12.10;;;5.88;;
49758;SDS011;70329;45.524;10.194;2024-03-02T02:30:23;11.43;;;5.95;;
49758;SDS011;70329;45.524;10.194;2024-03-02T02:32:51;16.35;;;6.60;;
49758;SDS011;70329;45.524;10.194;2024-03-02T02:37:47;14.60;;;6.65;;
49758;SDS011;70329;45.524;10.194;2024-03-02T02:40:18;13.15;;;6.00;;
49758;SDS011;70329;45.524;10.194;2024-03-02T02:42:45;15.00;;;6.35;;
49758;SDS011;70329;45.524;10.194;2024-03-02T02:45:11;12.82;;;6.10;;
49758;SDS011;70329;45.524;10.194;2024-03-02T02:47:39;12.23;;;5.75;;
49758;SDS011;70329;45.524;10.194;2024-03-02T02:50:09;11.32;;;5.53;;
49758;SDS011;70329;45.524;10.194;2024-03-02T02:52:39;10.77;;;5.80;;
49758;SDS011;70329;45.524;10.194;2024-03-02T02:55:07;13.20;;;6.47;;
49758;SDS011;70329;45.524;10.194;2024-03-02T02:57:36;15.05;;;5.72;;
49758;SDS011;70329;45.524;10.194;2024-03-02T03:00:04;10.05;;;5.47;;
49758;SDS011;70329;45.524;10.194;2024-03-02T03:02:35;12.73;;;5.60;;
49758;SDS011;70329;45.524;10.194;2024-03-02T03:05:04;11.05;;;5.63;;
49758;SDS011;70329;45.524;10.194;2024-03-02T03:07:33;13.10;;;6.47;;
49758;SDS011;70329;45.524;10.194;2024-03-02T03:10:03;13.32;;;5.82;;
49758;SDS011;70329;45.524;10.194;2024-03-02T03:12:31;11.15;;;5.90;;
